LFRU/MXN METAR and TAF weather

Enter ICAO airport designator
Station Type Date Time Source
LFRU METAR 2019/06/18 14:30 UTC NOAA

LFRU 181430Z AUTO 07005KT 030V100 CAVOK 19/16 Q1010


Station Type Date Time Source
LFRU Decoded METAR 2019/06/18 14:30 UTC NOAA

Morlaix / Ploujean, France (LFRU) 48-36N 003-49W
Jun 18, 2019 - 10:30 AM EDT / 2019.06.18 1430 UTC
Wind: from the ENE (070 degrees) at 6 MPH (5 KT) (direction variable):0
Visibility: greater than 7 mile(s):0
Temperature: 66 F (19 C)
Dew Point: 60 F (16 C)
Relative Humidity: 82%
Pressure (altimeter): 29.83 in. Hg (1010 hPa)
ob: LFRU 181430Z AUTO 07005KT 030V100 CAVOK 19/16 Q1010
cycle: 14

Station Type Date Time Source
LFRU TAF UTC NOAA

Error!

Example: see airport list